createdAt,value
2023-04-04T00:01:37.881Z,60.69
2023-04-04T00:04:43.236Z,61.11
2023-04-04T00:07:49.157Z,61.47
2023-04-04T00:10:58.021Z,61.48
2023-04-04T00:14:00.671Z,61.48
2023-04-04T00:17:03.596Z,62.02
2023-04-04T00:20:07.030Z,61.89
2023-04-04T00:23:11.477Z,61.77
2023-04-04T00:26:14.159Z,61.43
2023-04-04T00:29:17.894Z,61.34
2023-04-04T00:32:21.130Z,61.47
2023-04-04T00:35:24.070Z,61.78
2023-04-04T00:38:26.761Z,61.88
2023-04-04T00:41:31.731Z,60.96
2023-04-04T00:44:36.875Z,61.21
2023-04-04T00:47:40.094Z,61.07
2023-04-04T00:50:42.848Z,60.61
2023-04-04T00:53:46.989Z,60.93
2023-04-04T00:56:55.600Z,60.68
2023-04-04T00:59:59.850Z,60.62
2023-04-04T01:03:03.068Z,60.53
2023-04-04T01:06:07.477Z,60.20
2023-04-04T01:09:10.610Z,59.99
2023-04-04T01:12:13.585Z,60.34
2023-04-04T01:15:16.553Z,60.32
2023-04-04T01:18:22.409Z,59.59
2023-04-04T01:21:25.117Z,60.03
2023-04-04T01:24:29.427Z,59.76
2023-04-04T01:27:35.008Z,59.78
2023-04-04T01:30:47.293Z,59.96
2023-04-04T01:34:00.954Z,60.11
2023-04-04T01:37:08.075Z,60.35
2023-04-04T01:40:19.216Z,60.15
2023-04-04T01:43:24.625Z,60.17
2023-04-04T01:46:32.268Z,60.17
2023-04-04T01:49:35.859Z,60.23
2023-04-04T01:52:40.048Z,60.21
2023-04-04T01:55:43.094Z,59.94
2023-04-04T01:58:46.090Z,59.96
2023-04-04T02:01:49.000Z,59.54
2023-04-04T02:04:51.702Z,59.88
2023-04-04T02:07:57.039Z,59.90
2023-04-04T02:11:10.136Z,59.91
2023-04-04T02:14:13.161Z,59.44
2023-04-04T02:17:16.569Z,59.95
2023-04-04T02:20:19.839Z,60.07
2023-04-04T02:23:22.551Z,60.01
2023-04-04T02:26:25.354Z,60.39
2023-04-04T02:29:28.100Z,60.64
2023-04-04T02:32:30.790Z,60.46
2023-04-04T02:35:33.784Z,60.76
2023-04-04T02:38:36.727Z,60.92
2023-04-04T02:41:41.948Z,60.69
2023-04-04T02:44:44.627Z,60.72
2023-04-04T02:47:51.756Z,61.08
2023-04-04T02:50:59.323Z,60.67
2023-04-04T02:54:03.382Z,61.36
2023-04-04T02:57:13.374Z,61.33
2023-04-04T03:00:16.315Z,61.29
2023-04-04T03:03:19.079Z,61.44
2023-04-04T03:06:23.560Z,61.41
2023-04-04T03:09:26.581Z,61.94
2023-04-04T03:12:29.262Z,61.62
2023-04-04T03:15:32.466Z,61.56
2023-04-04T03:18:35.237Z,61.66
2023-04-04T03:21:38.069Z,61.35
2023-04-04T03:24:41.742Z,61.79
2023-04-04T03:27:44.601Z,61.95
2023-04-04T03:30:54.025Z,61.90
2023-04-04T03:33:56.827Z,62.24
2023-04-04T03:37:00.229Z,61.62
2023-04-04T03:40:03.045Z,61.93
2023-04-04T03:43:09.042Z,61.42
2023-04-04T03:46:11.953Z,62.49
2023-04-04T03:49:14.557Z,62.46
2023-04-04T03:52:17.595Z,62.34
2023-04-04T03:55:20.308Z,62.03
2023-04-04T03:58:23.693Z,62.41
2023-04-04T04:01:27.355Z,62.33
2023-04-04T04:04:30.453Z,62.97
2023-04-04T04:07:35.969Z,63.08
2023-04-04T04:10:39.866Z,62.89
2023-04-04T04:13:42.772Z,62.83
2023-04-04T04:16:45.420Z,62.85
2023-04-04T04:19:52.933Z,62.63
2023-04-04T04:22:56.104Z,62.80
2023-04-04T04:25:59.032Z,62.44
2023-04-04T04:29:03.665Z,62.74
2023-04-04T04:32:08.755Z,62.99
2023-04-04T04:35:17.111Z,62.61
2023-04-04T04:38:21.130Z,62.41
2023-04-04T04:41:25.172Z,62.20
2023-04-04T04:44:28.509Z,62.08
2023-04-04T04:47:32.999Z,61.82
2023-04-04T04:50:39.781Z,61.42
2023-04-04T04:53:45.878Z,61.72
2023-04-04T04:56:49.635Z,60.80
2023-04-04T04:59:52.727Z,60.64
2023-04-04T05:02:57.172Z,60.27
2023-04-04T05:06:10.462Z,60.15
2023-04-04T05:09:14.798Z,60.24
2023-04-04T05:12:18.383Z,60.52
2023-04-04T05:15:26.224Z,60.30
2023-04-04T05:18:29.145Z,60.31
2023-04-04T05:21:32.621Z,60.81
2023-04-04T05:24:37.050Z,60.37
2023-04-04T05:27:41.080Z,60.61
2023-04-04T05:30:44.030Z,60.33
2023-04-04T05:33:51.526Z,59.89
2023-04-04T05:37:11.694Z,59.45
2023-04-04T05:40:15.234Z,59.48
2023-04-04T05:43:21.228Z,58.89
2023-04-04T05:46:36.345Z,59.26
2023-04-04T05:49:40.191Z,58.87
2023-04-04T05:52:43.204Z,58.50
2023-04-04T05:55:53.788Z,58.25
2023-04-04T05:59:00.312Z,58.73
2023-04-04T06:02:08.066Z,56.81
2023-04-04T06:05:14.856Z,56.66
2023-04-04T06:08:17.916Z,56.93
2023-04-04T06:11:22.967Z,57.11
2023-04-04T06:14:26.493Z,56.30
2023-04-04T06:17:29.673Z,56.70
2023-04-04T06:20:32.975Z,56.69
2023-04-04T06:23:37.998Z,56.42
2023-04-04T06:26:43.148Z,55.08
2023-04-04T06:29:45.996Z,55.23
2023-04-04T06:32:53.402Z,55.86
2023-04-04T06:36:00.651Z,54.21
2023-04-04T06:39:03.468Z,55.88
2023-04-04T06:42:06.473Z,54.61
2023-04-04T06:45:11.349Z,55.42
2023-04-04T06:48:14.133Z,54.34
2023-04-04T06:51:16.886Z,54.45
2023-04-04T06:54:21.426Z,54.30
2023-04-04T06:57:24.148Z,53.68
2023-04-04T07:00:26.876Z,54.17
2023-04-04T07:03:29.983Z,54.08
2023-04-04T07:06:32.875Z,52.54
2023-04-04T07:09:35.645Z,52.24
2023-04-04T07:12:38.384Z,52.32
2023-04-04T07:15:41.303Z,52.42
2023-04-04T07:18:44.705Z,52.40
2023-04-04T07:21:47.530Z,51.76
2023-04-04T07:24:50.736Z,51.05
2023-04-04T07:27:59.698Z,51.05
2023-04-04T07:31:08.658Z,48.86
2023-04-04T07:34:11.885Z,47.93
2023-04-04T07:37:14.837Z,46.04
2023-04-04T07:40:19.195Z,47.23
2023-04-04T07:43:21.927Z,45.82
2023-04-04T07:46:24.719Z,45.63
2023-04-04T07:49:27.463Z,44.60
2023-04-04T07:52:30.561Z,44.76
2023-04-04T07:55:33.236Z,43.75
2023-04-04T07:58:36.948Z,43.91
2023-04-04T08:01:39.637Z,44.63
2023-04-04T08:04:42.490Z,43.96
2023-04-04T08:07:45.246Z,44.91
2023-04-04T08:10:49.554Z,44.31
2023-04-04T08:13:52.197Z,44.05
2023-04-04T08:16:55.022Z,43.33
2023-04-04T08:19:58.603Z,44.38
2023-04-04T08:23:01.761Z,43.64
2023-04-04T08:26:04.747Z,43.64
2023-04-04T08:29:07.937Z,44.90
2023-04-04T08:32:17.308Z,44.06
2023-04-04T08:35:20.196Z,43.34
2023-04-04T08:38:22.950Z,44.25
2023-04-04T08:41:27.084Z,43.66
2023-04-04T08:44:34.135Z,43.03
2023-04-04T08:47:38.964Z,43.56
2023-04-04T08:50:43.036Z,43.73
2023-04-04T08:53:46.216Z,43.37
2023-04-04T08:56:50.246Z,43.92
2023-04-04T08:59:54.816Z,43.10
2023-04-04T09:03:06.348Z,42.96
2023-04-04T09:06:09.485Z,42.24
2023-04-04T09:09:12.644Z,43.14
2023-04-04T09:12:19.079Z,43.48
2023-04-04T09:15:22.180Z,42.53
2023-04-04T09:18:25.005Z,42.50
2023-04-04T09:21:29.733Z,42.48
2023-04-04T09:24:42.902Z,40.62
2023-04-04T09:27:45.997Z,41.07
2023-04-04T09:30:49.637Z,41.08
2023-04-04T09:33:52.520Z,41.79
2023-04-04T09:36:55.436Z,41.21
2023-04-04T09:39:58.470Z,42.69
2023-04-04T09:43:02.629Z,41.26
2023-04-04T09:46:06.532Z,41.92
2023-04-04T09:49:20.686Z,42.39
2023-04-04T09:52:23.577Z,40.48
2023-04-04T09:55:36.819Z,41.10
2023-04-04T09:58:46.685Z,42.08
2023-04-04T10:01:56.026Z,40.01
2023-04-04T10:05:06.181Z,40.16
2023-04-04T10:08:22.440Z,39.83
2023-04-04T10:11:34.123Z,40.54
2023-04-04T10:14:37.269Z,40.83
2023-04-04T10:17:42.265Z,40.94
2023-04-04T10:20:46.445Z,40.20
2023-04-04T10:23:49.716Z,41.51
2023-04-04T10:26:53.924Z,41.59
2023-04-04T10:29:57.741Z,41.30
2023-04-04T10:33:06.634Z,41.79
2023-04-04T10:36:10.094Z,41.89
2023-04-04T10:39:23.308Z,41.22
2023-04-04T10:42:27.311Z,42.48
2023-04-04T10:45:32.353Z,42.09
2023-04-04T10:48:35.424Z,41.17
2023-04-04T10:51:48.893Z,41.78
2023-04-04T10:54:59.113Z,41.72
2023-04-04T10:58:02.412Z,43.24
2023-04-04T11:01:08.632Z,41.64
2023-04-04T11:04:21.100Z,42.19
2023-04-04T11:07:29.702Z,41.33
2023-04-04T11:10:37.548Z,42.38
2023-04-04T11:13:41.989Z,41.80
2023-04-04T11:16:47.000Z,41.47
2023-04-04T11:20:00.390Z,41.27
2023-04-04T11:23:04.253Z,40.79
2023-04-04T11:26:08.973Z,41.24
2023-04-04T11:29:21.264Z,41.09
2023-04-04T11:32:34.930Z,41.13
2023-04-04T11:35:41.758Z,42.28
2023-04-04T11:38:50.186Z,41.28
2023-04-04T11:41:52.993Z,39.81
2023-04-04T11:44:55.587Z,40.59
2023-04-04T11:47:59.960Z,40.81
2023-04-04T11:51:04.388Z,40.92
2023-04-04T11:54:16.989Z,41.41
2023-04-04T11:57:21.524Z,41.19
2023-04-04T12:00:35.310Z,41.01
2023-04-04T12:03:39.200Z,41.61
2023-04-04T12:06:43.272Z,41.70
2023-04-04T12:09:46.242Z,41.19
2023-04-04T12:12:50.324Z,43.02
2023-04-04T12:15:54.629Z,41.72
2023-04-04T12:19:02.774Z,42.61
2023-04-04T12:22:06.288Z,42.46
2023-04-04T12:25:10.391Z,41.50
2023-04-04T12:28:13.376Z,41.17
2023-04-04T12:31:19.002Z,41.76
2023-04-04T12:37:33.604Z,42.02
2023-04-04T12:40:39.170Z,43.25
2023-04-04T12:43:42.811Z,43.20
2023-04-04T12:46:47.678Z,43.56
2023-04-04T12:49:57.792Z,42.42
2023-04-04T12:53:30.184Z,42.00
2023-04-04T12:56:56.993Z,42.65
2023-04-04T13:00:11.633Z,42.47
2023-04-04T13:03:42.990Z,42.97
2023-04-04T13:06:49.431Z,42.99
2023-04-04T13:10:05.001Z,41.61
2023-04-04T13:13:44.107Z,41.43
2023-04-04T13:17:03.871Z,41.80
2023-04-04T13:20:57.026Z,42.74
2023-04-04T13:24:11.329Z,41.52
2023-04-04T13:27:21.832Z,41.74
2023-04-04T13:30:24.629Z,41.88
2023-04-04T13:33:27.690Z,41.31
2023-04-04T13:36:30.636Z,41.62
2023-04-04T13:39:33.583Z,42.69
2023-04-04T13:42:36.643Z,41.75
2023-04-04T13:45:39.534Z,41.72
2023-04-04T13:48:43.195Z,42.84
2023-04-04T13:51:46.087Z,42.35
2023-04-04T13:54:52.224Z,42.70
2023-04-04T13:57:55.252Z,42.95
2023-04-04T14:00:58.200Z,43.30
2023-04-04T14:04:07.331Z,43.32
2023-04-04T14:07:16.212Z,42.66
2023-04-04T14:10:19.133Z,42.74
2023-04-04T14:13:22.816Z,42.97
2023-04-04T14:16:25.791Z,42.63
2023-04-04T14:19:28.701Z,43.65
2023-04-04T14:22:31.901Z,43.88
2023-04-04T14:25:35.206Z,43.90
2023-04-04T14:28:39.140Z,44.09
2023-04-04T14:31:42.539Z,44.10
2023-04-04T14:34:45.632Z,44.48
2023-04-04T14:37:50.417Z,44.65
2023-04-04T14:40:53.250Z,45.16
2023-04-04T14:43:56.345Z,45.01
2023-04-04T14:46:59.369Z,45.77
2023-04-04T14:50:02.401Z,46.33
2023-04-04T14:53:05.189Z,46.57
2023-04-04T14:56:10.843Z,46.20
2023-04-04T14:59:14.416Z,47.00
2023-04-04T15:02:17.299Z,46.80
2023-04-04T15:05:20.321Z,46.92
2023-04-04T15:08:23.250Z,47.75
2023-04-04T15:11:28.061Z,47.89
2023-04-04T15:14:31.427Z,48.07
2023-04-04T15:17:34.395Z,48.59
2023-04-04T15:20:40.847Z,47.90
2023-04-04T15:23:43.866Z,48.59
2023-04-04T15:26:47.224Z,48.78
2023-04-04T15:29:50.437Z,48.77
2023-04-04T15:32:54.493Z,49.67
2023-04-04T15:35:57.521Z,48.70
2023-04-04T15:39:01.632Z,49.27
2023-04-04T15:42:06.142Z,48.88
2023-04-04T15:45:10.340Z,48.97
2023-04-04T15:48:13.656Z,48.80
2023-04-04T15:51:17.416Z,49.14
2023-04-04T15:54:20.294Z,49.24
2023-04-04T15:57:27.488Z,49.06
2023-04-04T16:00:30.451Z,49.79
2023-04-04T16:03:33.778Z,50.17
2023-04-04T16:06:37.757Z,49.87
2023-04-04T16:09:44.686Z,50.30
2023-04-04T16:12:47.544Z,50.38
2023-04-04T16:15:50.578Z,50.26
2023-04-04T16:18:53.637Z,50.23
2023-04-04T16:21:57.028Z,50.53
2023-04-04T16:24:59.919Z,50.22
2023-04-04T16:28:02.720Z,50.35
2023-04-04T16:31:06.174Z,50.43
2023-04-04T16:34:10.313Z,50.41
2023-04-04T16:37:16.925Z,50.79
2023-04-04T16:40:20.428Z,50.53
2023-04-04T16:43:23.456Z,50.77
2023-04-04T16:46:29.298Z,50.98
2023-04-04T16:49:32.330Z,50.89
2023-04-04T16:52:35.456Z,51.02
2023-04-04T16:55:38.387Z,51.00
2023-04-04T16:58:41.709Z,51.30
2023-04-04T17:01:44.485Z,51.26
2023-04-04T17:04:47.466Z,51.66
2023-04-04T17:07:50.478Z,51.33
2023-04-04T17:10:53.567Z,51.51
2023-04-04T17:13:56.764Z,51.50
2023-04-04T17:17:02.966Z,52.25
2023-04-04T17:20:06.855Z,51.32
2023-04-04T17:23:10.267Z,52.33
2023-04-04T17:26:13.334Z,51.93
2023-04-04T17:29:16.473Z,52.05
2023-04-04T17:32:20.023Z,52.40
2023-04-04T17:35:22.973Z,52.59
2023-04-04T17:38:25.860Z,52.50
2023-04-04T17:41:31.280Z,52.48
2023-04-04T17:44:34.028Z,52.74
2023-04-04T17:47:36.797Z,52.45
2023-04-04T17:50:40.265Z,52.27
2023-04-04T17:53:43.661Z,52.10
2023-04-04T17:56:47.447Z,52.97
2023-04-04T17:59:50.503Z,52.96
2023-04-04T18:02:53.710Z,53.13
2023-04-04T18:05:56.886Z,53.31
2023-04-04T18:09:01.807Z,52.88
2023-04-04T18:12:04.733Z,53.22
2023-04-04T18:15:08.168Z,53.24
2023-04-04T18:18:11.198Z,53.48
2023-04-04T18:21:14.380Z,53.96
2023-04-04T18:24:17.334Z,53.99
2023-04-04T18:27:20.363Z,53.89
2023-04-04T18:30:23.747Z,53.95
2023-04-04T18:33:27.775Z,53.94
2023-04-04T18:36:31.377Z,53.73
2023-04-04T18:39:34.420Z,53.88
2023-04-04T18:42:37.464Z,54.13
2023-04-04T18:45:42.176Z,54.14
2023-04-04T18:48:45.078Z,54.63
2023-04-04T18:51:48.083Z,54.00
2023-04-04T18:54:53.387Z,54.13
2023-04-04T18:57:56.679Z,54.28
2023-04-04T19:00:59.772Z,54.56
2023-04-04T19:04:06.242Z,54.65
2023-04-04T19:07:11.872Z,54.68
2023-04-04T19:10:15.993Z,54.45
2023-04-04T19:13:19.142Z,55.23
2023-04-04T19:16:22.108Z,54.83
2023-04-04T19:19:25.307Z,54.95
2023-04-04T19:22:28.228Z,55.42
2023-04-04T19:25:30.959Z,55.48
2023-04-04T19:28:33.916Z,55.45
2023-04-04T19:31:36.822Z,55.91
2023-04-04T19:34:39.586Z,55.44
2023-04-04T19:37:42.367Z,56.18
2023-04-04T19:40:49.915Z,56.07
2023-04-04T19:43:52.767Z,55.73
2023-04-04T19:46:55.801Z,55.64
2023-04-04T19:49:58.626Z,55.98
2023-04-04T19:53:01.559Z,55.95
2023-04-04T19:56:08.665Z,56.38
2023-04-04T19:59:37.119Z,56.46
2023-04-04T20:02:48.328Z,56.29
2023-04-04T20:05:56.488Z,57.06
2023-04-04T20:09:01.539Z,56.33
2023-04-04T20:12:05.740Z,56.81
2023-04-04T20:15:14.981Z,56.98
2023-04-04T20:18:24.939Z,56.68
2023-04-04T20:21:29.091Z,57.23
2023-04-04T20:24:32.178Z,57.05
2023-04-04T20:27:34.831Z,56.79
2023-04-04T20:30:38.209Z,57.21
2023-04-04T20:33:41.605Z,57.43
2023-04-04T20:36:44.635Z,57.19
2023-04-04T20:39:55.266Z,56.68
2023-04-04T20:42:58.472Z,56.81
2023-04-04T20:46:01.651Z,56.68
2023-04-04T20:49:04.857Z,57.31
2023-04-04T20:52:07.958Z,57.77
2023-04-04T20:55:14.154Z,58.00
2023-04-04T20:58:36.202Z,58.36
2023-04-04T21:01:39.162Z,57.80
2023-04-04T21:04:46.026Z,57.74
2023-04-04T21:07:48.912Z,57.89
2023-04-04T21:10:54.082Z,58.74
2023-04-04T21:13:57.385Z,59.12
2023-04-04T21:17:00.247Z,58.69
2023-04-04T21:20:09.547Z,58.39
2023-04-04T21:23:32.085Z,58.69
2023-04-04T21:26:37.372Z,59.06
2023-04-04T21:29:43.232Z,59.15
2023-04-04T21:32:46.205Z,58.63
2023-04-04T21:35:50.988Z,58.92
2023-04-04T21:39:00.985Z,58.51
2023-04-04T21:42:07.948Z,58.91
2023-04-04T21:45:11.755Z,58.91
2023-04-04T21:48:14.726Z,58.27
2023-04-04T21:51:17.684Z,58.96
2023-04-04T21:54:20.640Z,59.15
2023-04-04T21:57:29.206Z,58.83
2023-04-04T22:00:32.425Z,58.25
2023-04-04T22:03:37.506Z,57.77
2023-04-04T22:06:40.443Z,58.55
2023-04-04T22:09:46.957Z,58.12
2023-04-04T22:12:50.367Z,58.31
2023-04-04T22:15:59.164Z,58.20
2023-04-04T22:19:02.052Z,57.80
2023-04-04T22:22:05.685Z,57.98
2023-04-04T22:25:10.716Z,57.66
2023-04-04T22:28:13.414Z,57.25
2023-04-04T22:31:16.676Z,57.43
2023-04-04T22:34:19.340Z,57.25
2023-04-04T22:37:22.124Z,57.27
2023-04-04T22:40:24.968Z,57.15
2023-04-04T22:43:27.750Z,57.41
2023-04-04T22:46:31.814Z,58.31
2023-04-04T22:49:38.315Z,57.89
2023-04-04T22:52:43.580Z,57.55
2023-04-04T22:55:46.550Z,57.65
2023-04-04T22:58:49.257Z,57.43
2023-04-04T23:01:52.439Z,58.10
2023-04-04T23:04:55.233Z,57.78
2023-04-04T23:08:01.789Z,57.89
2023-04-04T23:11:06.866Z,58.08
2023-04-04T23:14:09.938Z,58.44
2023-04-04T23:17:14.918Z,58.84
2023-04-04T23:20:18.499Z,58.68
2023-04-04T23:23:23.946Z,59.26
2023-04-04T23:26:27.542Z,58.32
2023-04-04T23:29:30.526Z,58.84
2023-04-04T23:32:33.369Z,58.77
2023-04-04T23:35:36.189Z,58.69
2023-04-04T23:38:38.839Z,58.89
2023-04-04T23:41:41.684Z,58.80
2023-04-04T23:44:44.381Z,58.65
2023-04-04T23:47:47.094Z,58.54
2023-04-04T23:50:50.393Z,58.82
2023-04-04T23:53:53.221Z,59.55
2023-04-04T23:56:58.980Z,58.99
